sensor_id;sensor_type;location;lat;lon;timestamp;P1;durP1;ratioP1;P2;durP2;ratioP2
54452;SDS011;40363;52.270;10.546;2023-02-10T00:00:27;23.33;;;10.73;;
54452;SDS011;40363;52.270;10.546;2023-02-10T00:02:53;24.50;;;10.48;;
54452;SDS011;40363;52.270;10.546;2023-02-10T00:05:23;20.63;;;11.27;;
54452;SDS011;40363;52.270;10.546;2023-02-10T00:07:50;23.70;;;11.35;;
54452;SDS011;40363;52.270;10.546;2023-02-10T00:10:17;23.98;;;12.07;;
54452;SDS011;40363;52.270;10.546;2023-02-10T00:12:44;24.35;;;10.93;;
54452;SDS011;40363;52.270;10.546;2023-02-10T00:15:16;25.25;;;11.93;;
54452;SDS011;40363;52.270;10.546;2023-02-10T00:17:46;24.52;;;12.35;;
54452;SDS011;40363;52.270;10.546;2023-02-10T00:20:12;27.33;;;11.57;;
54452;SDS011;40363;52.270;10.546;2023-02-10T00:22:39;19.38;;;11.20;;
54452;SDS011;40363;52.270;10.546;2023-02-10T00:25:06;24.00;;;12.52;;
54452;SDS011;40363;52.270;10.546;2023-02-10T00:27:33;27.75;;;13.73;;
54452;SDS011;40363;52.270;10.546;2023-02-10T00:30:03;23.67;;;11.57;;
54452;SDS011;40363;52.270;10.546;2023-02-10T00:32:30;30.00;;;12.48;;
54452;SDS011;40363;52.270;10.546;2023-02-10T00:34:58;30.40;;;12.52;;
54452;SDS011;40363;52.270;10.546;2023-02-10T00:37:25;30.58;;;14.25;;
54452;SDS011;40363;52.270;10.546;2023-02-10T00:39:52;23.33;;;13.40;;
54452;SDS011;40363;52.270;10.546;2023-02-10T00:42:21;24.10;;;13.07;;
54452;SDS011;40363;52.270;10.546;2023-02-10T00:44:48;31.40;;;13.98;;
54452;SDS011;40363;52.270;10.546;2023-02-10T00:47:15;29.95;;;12.93;;
54452;SDS011;40363;52.270;10.546;2023-02-10T00:49:42;28.90;;;14.57;;
54452;SDS011;40363;52.270;10.546;2023-02-10T00:52:12;35.85;;;15.07;;
54452;SDS011;40363;52.270;10.546;2023-02-10T00:54:39;36.72;;;16.65;;
54452;SDS011;40363;52.270;10.546;2023-02-10T00:57:08;32.17;;;17.45;;
54452;SDS011;40363;52.270;10.546;2023-02-10T00:59:36;30.05;;;14.63;;
54452;SDS011;40363;52.270;10.546;2023-02-10T01:02:03;36.60;;;16.63;;
54452;SDS011;40363;52.270;10.546;2023-02-10T01:04:32;36.10;;;15.43;;
54452;SDS011;40363;52.270;10.546;2023-02-10T01:07:06;34.70;;;14.30;;
54452;SDS011;40363;52.270;10.546;2023-02-10T01:09:38;32.17;;;15.15;;
54452;SDS011;40363;52.270;10.546;2023-02-10T01:12:07;39.40;;;17.73;;
54452;SDS011;40363;52.270;10.546;2023-02-10T01:14:37;37.28;;;16.55;;
54452;SDS011;40363;52.270;10.546;2023-02-10T01:17:05;38.97;;;17.52;;
54452;SDS011;40363;52.270;10.546;2023-02-10T01:19:35;35.42;;;16.08;;
54452;SDS011;40363;52.270;10.546;2023-02-10T01:22:03;34.88;;;16.20;;
54452;SDS011;40363;52.270;10.546;2023-02-10T01:24:30;36.10;;;16.98;;
54452;SDS011;40363;52.270;10.546;2023-02-10T01:26:58;42.25;;;19.65;;
54452;SDS011;40363;52.270;10.546;2023-02-10T01:29:25;43.58;;;17.83;;
54452;SDS011;40363;52.270;10.546;2023-02-10T01:31:52;34.58;;;16.55;;
54452;SDS011;40363;52.270;10.546;2023-02-10T01:34:19;38.50;;;17.40;;
54452;SDS011;40363;52.270;10.546;2023-02-10T01:36:46;44.63;;;17.90;;
54452;SDS011;40363;52.270;10.546;2023-02-10T01:39:14;38.28;;;17.88;;
54452;SDS011;40363;52.270;10.546;2023-02-10T01:41:43;47.65;;;17.42;;
54452;SDS011;40363;52.270;10.546;2023-02-10T01:47:19;35.78;;;16.85;;
54452;SDS011;40363;52.270;10.546;2023-02-10T01:49:48;39.90;;;18.20;;
54452;SDS011;40363;52.270;10.546;2023-02-10T01:52:20;42.28;;;18.85;;
54452;SDS011;40363;52.270;10.546;2023-02-10T01:54:53;34.00;;;16.70;;
54452;SDS011;40363;52.270;10.546;2023-02-10T01:57:23;37.00;;;17.02;;
54452;SDS011;40363;52.270;10.546;2023-02-10T01:59:50;40.58;;;17.17;;
54452;SDS011;40363;52.270;10.546;2023-02-10T02:02:19;41.72;;;19.27;;
54452;SDS011;40363;52.270;10.546;2023-02-10T02:04:47;45.13;;;17.50;;
54452;SDS011;40363;52.270;10.546;2023-02-10T02:07:16;47.75;;;19.50;;
54452;SDS011;40363;52.270;10.546;2023-02-10T02:09:45;37.92;;;19.02;;
54452;SDS011;40363;52.270;10.546;2023-02-10T02:12:15;44.47;;;19.13;;
54452;SDS011;40363;52.270;10.546;2023-02-10T02:14:48;43.65;;;19.40;;
54452;SDS011;40363;52.270;10.546;2023-02-10T02:17:25;43.08;;;19.15;;
54452;SDS011;40363;52.270;10.546;2023-02-10T02:23:09;48.90;;;18.60;;
54452;SDS011;40363;52.270;10.546;2023-02-10T02:25:45;45.90;;;20.10;;
54452;SDS011;40363;52.270;10.546;2023-02-10T02:28:33;47.63;;;17.13;;
54452;SDS011;40363;52.270;10.546;2023-02-10T02:34:13;41.90;;;19.80;;
54452;SDS011;40363;52.270;10.546;2023-02-10T02:36:44;43.97;;;19.67;;
54452;SDS011;40363;52.270;10.546;2023-02-10T02:39:15;49.78;;;19.75;;
54452;SDS011;40363;52.270;10.546;2023-02-10T02:41:43;39.90;;;17.73;;
54452;SDS011;40363;52.270;10.546;2023-02-10T02:44:10;39.25;;;18.38;;
54452;SDS011;40363;52.270;10.546;2023-02-10T02:46:42;44.75;;;18.75;;
54452;SDS011;40363;52.270;10.546;2023-02-10T02:49:20;34.63;;;17.55;;
54452;SDS011;40363;52.270;10.546;2023-02-10T02:52:00;46.00;;;19.23;;
54452;SDS011;40363;52.270;10.546;2023-02-10T02:54:31;48.28;;;18.90;;
54452;SDS011;40363;52.270;10.546;2023-02-10T02:57:06;49.00;;;18.13;;
54452;SDS011;40363;52.270;10.546;2023-02-10T02:59:39;50.13;;;20.58;;
54452;SDS011;40363;52.270;10.546;2023-02-10T03:02:12;42.70;;;19.02;;
54452;SDS011;40363;52.270;10.546;2023-02-10T03:04:40;49.08;;;21.05;;
54452;SDS011;40363;52.270;10.546;2023-02-10T03:07:08;48.35;;;19.90;;
54452;SDS011;40363;52.270;10.546;2023-02-10T03:09:35;40.88;;;16.08;;
54452;SDS011;40363;52.270;10.546;2023-02-10T03:12:02;51.63;;;18.55;;
54452;SDS011;40363;52.270;10.546;2023-02-10T03:14:30;44.80;;;18.00;;
54452;SDS011;40363;52.270;10.546;2023-02-10T03:16:57;45.20;;;19.70;;
54452;SDS011;40363;52.270;10.546;2023-02-10T03:19:28;53.78;;;20.90;;
54452;SDS011;40363;52.270;10.546;2023-02-10T03:21:56;40.47;;;19.13;;
54452;SDS011;40363;52.270;10.546;2023-02-10T03:24:23;44.80;;;17.95;;
54452;SDS011;40363;52.270;10.546;2023-02-10T03:26:50;51.92;;;21.40;;
54452;SDS011;40363;52.270;10.546;2023-02-10T03:29:16;45.22;;;19.08;;
54452;SDS011;40363;52.270;10.546;2023-02-10T03:31:43;40.17;;;18.75;;
54452;SDS011;40363;52.270;10.546;2023-02-10T03:34:10;45.35;;;18.85;;
54452;SDS011;40363;52.270;10.546;2023-02-10T03:36:38;52.85;;;20.58;;
54452;SDS011;40363;52.270;10.546;2023-02-10T03:39:05;43.88;;;20.17;;
54452;SDS011;40363;52.270;10.546;2023-02-10T03:41:35;49.35;;;20.20;;
54452;SDS011;40363;52.270;10.546;2023-02-10T03:44:05;46.03;;;19.08;;
54452;SDS011;40363;52.270;10.546;2023-02-10T03:46:32;50.15;;;20.10;;
54452;SDS011;40363;52.270;10.546;2023-02-10T03:48:58;51.65;;;19.70;;
54452;SDS011;40363;52.270;10.546;2023-02-10T03:51:25;50.97;;;20.52;;
54452;SDS011;40363;52.270;10.546;2023-02-10T03:53:53;52.20;;;20.50;;
54452;SDS011;40363;52.270;10.546;2023-02-10T03:56:19;39.42;;;18.35;;
54452;SDS011;40363;52.270;10.546;2023-02-10T03:58:46;49.88;;;20.48;;
54452;SDS011;40363;52.270;10.546;2023-02-10T04:01:14;47.03;;;19.30;;
54452;SDS011;40363;52.270;10.546;2023-02-10T04:03:45;48.03;;;20.23;;
54452;SDS011;40363;52.270;10.546;2023-02-10T04:06:14;48.10;;;20.33;;
54452;SDS011;40363;52.270;10.546;2023-02-10T04:08:41;45.42;;;20.17;;
54452;SDS011;40363;52.270;10.546;2023-02-10T04:11:11;47.90;;;19.02;;
54452;SDS011;40363;52.270;10.546;2023-02-10T04:13:38;42.13;;;17.52;;
54452;SDS011;40363;52.270;10.546;2023-02-10T04:16:06;40.17;;;18.60;;
54452;SDS011;40363;52.270;10.546;2023-02-10T04:18:34;43.13;;;18.05;;
54452;SDS011;40363;52.270;10.546;2023-02-10T04:21:01;38.60;;;18.67;;
54452;SDS011;40363;52.270;10.546;2023-02-10T04:23:28;39.72;;;19.00;;
54452;SDS011;40363;52.270;10.546;2023-02-10T04:25:55;41.65;;;20.02;;
54452;SDS011;40363;52.270;10.546;2023-02-10T04:28:24;46.95;;;19.45;;
54452;SDS011;40363;52.270;10.546;2023-02-10T04:30:51;40.17;;;18.58;;
54452;SDS011;40363;52.270;10.546;2023-02-10T04:33:18;42.78;;;17.88;;
54452;SDS011;40363;52.270;10.546;2023-02-10T04:35:46;37.83;;;17.67;;
54452;SDS011;40363;52.270;10.546;2023-02-10T04:38:13;41.25;;;18.40;;
54452;SDS011;40363;52.270;10.546;2023-02-10T04:40:40;41.17;;;18.98;;
54452;SDS011;40363;52.270;10.546;2023-02-10T04:43:07;44.53;;;20.83;;
54452;SDS011;40363;52.270;10.546;2023-02-10T04:45:35;40.08;;;17.60;;
54452;SDS011;40363;52.270;10.546;2023-02-10T04:48:02;41.10;;;18.27;;
54452;SDS011;40363;52.270;10.546;2023-02-10T04:50:29;41.92;;;19.85;;
54452;SDS011;40363;52.270;10.546;2023-02-10T04:52:55;48.28;;;19.40;;
54452;SDS011;40363;52.270;10.546;2023-02-10T04:55:22;42.75;;;17.92;;
54452;SDS011;40363;52.270;10.546;2023-02-10T04:57:49;43.22;;;19.98;;
54452;SDS011;40363;52.270;10.546;2023-02-10T05:00:16;40.85;;;18.75;;
54452;SDS011;40363;52.270;10.546;2023-02-10T05:02:44;43.80;;;20.77;;
54452;SDS011;40363;52.270;10.546;2023-02-10T05:05:12;46.20;;;17.05;;
54452;SDS011;40363;52.270;10.546;2023-02-10T05:07:39;43.45;;;18.77;;
54452;SDS011;40363;52.270;10.546;2023-02-10T05:10:05;48.35;;;19.77;;
54452;SDS011;40363;52.270;10.546;2023-02-10T05:12:32;46.47;;;20.67;;
54452;SDS011;40363;52.270;10.546;2023-02-10T05:14:59;53.88;;;19.77;;
54452;SDS011;40363;52.270;10.546;2023-02-10T05:17:28;43.83;;;21.10;;
54452;SDS011;40363;52.270;10.546;2023-02-10T05:19:56;45.97;;;19.67;;
54452;SDS011;40363;52.270;10.546;2023-02-10T05:22:23;42.78;;;18.58;;
54452;SDS011;40363;52.270;10.546;2023-02-10T05:24:54;44.33;;;18.02;;
54452;SDS011;40363;52.270;10.546;2023-02-10T05:27:21;44.80;;;18.73;;
54452;SDS011;40363;52.270;10.546;2023-02-10T05:29:50;47.10;;;18.27;;
54452;SDS011;40363;52.270;10.546;2023-02-10T05:32:17;40.60;;;17.60;;
54452;SDS011;40363;52.270;10.546;2023-02-10T05:34:45;45.08;;;17.42;;
54452;SDS011;40363;52.270;10.546;2023-02-10T05:37:13;36.65;;;17.58;;
54452;SDS011;40363;52.270;10.546;2023-02-10T05:39:40;41.67;;;16.88;;
54452;SDS011;40363;52.270;10.546;2023-02-10T05:42:13;43.67;;;18.10;;
54452;SDS011;40363;52.270;10.546;2023-02-10T05:44:42;38.95;;;17.90;;
54452;SDS011;40363;52.270;10.546;2023-02-10T05:47:09;36.42;;;17.55;;
54452;SDS011;40363;52.270;10.546;2023-02-10T05:49:35;38.30;;;17.23;;
54452;SDS011;40363;52.270;10.546;2023-02-10T05:52:02;42.90;;;17.65;;
54452;SDS011;40363;52.270;10.546;2023-02-10T05:54:31;40.90;;;17.08;;
54452;SDS011;40363;52.270;10.546;2023-02-10T05:57:18;50.78;;;20.50;;
54452;SDS011;40363;52.270;10.546;2023-02-10T05:59:45;32.78;;;16.23;;
54452;SDS011;40363;52.270;10.546;2023-02-10T06:02:12;44.42;;;18.42;;
54452;SDS011;40363;52.270;10.546;2023-02-10T06:04:39;39.65;;;16.75;;
54452;SDS011;40363;52.270;10.546;2023-02-10T06:07:09;36.85;;;18.48;;
54452;SDS011;40363;52.270;10.546;2023-02-10T06:09:37;41.10;;;18.08;;
54452;SDS011;40363;52.270;10.546;2023-02-10T06:12:04;37.78;;;15.70;;
54452;SDS011;40363;52.270;10.546;2023-02-10T06:14:31;35.88;;;16.40;;
54452;SDS011;40363;52.270;10.546;2023-02-10T06:16:58;29.05;;;15.00;;
54452;SDS011;40363;52.270;10.546;2023-02-10T06:19:28;35.70;;;15.40;;
54452;SDS011;40363;52.270;10.546;2023-02-10T06:21:55;34.28;;;16.20;;
54452;SDS011;40363;52.270;10.546;2023-02-10T06:24:21;37.60;;;16.80;;
54452;SDS011;40363;52.270;10.546;2023-02-10T06:26:49;38.65;;;16.05;;
54452;SDS011;40363;52.270;10.546;2023-02-10T06:29:16;39.63;;;17.02;;
54452;SDS011;40363;52.270;10.546;2023-02-10T06:31:42;38.78;;;17.17;;
54452;SDS011;40363;52.270;10.546;2023-02-10T06:34:09;39.30;;;17.90;;
54452;SDS011;40363;52.270;10.546;2023-02-10T06:36:35;43.05;;;18.63;;
54452;SDS011;40363;52.270;10.546;2023-02-10T06:39:02;37.70;;;17.02;;
54452;SDS011;40363;52.270;10.546;2023-02-10T06:41:29;44.72;;;16.58;;
54452;SDS011;40363;52.270;10.546;2023-02-10T06:43:57;39.13;;;17.92;;
54452;SDS011;40363;52.270;10.546;2023-02-10T06:46:24;35.05;;;16.15;;
54452;SDS011;40363;52.270;10.546;2023-02-10T06:48:51;38.63;;;16.58;;
54452;SDS011;40363;52.270;10.546;2023-02-10T06:51:18;38.20;;;16.50;;
54452;SDS011;40363;52.270;10.546;2023-02-10T06:53:45;48.05;;;18.48;;
54452;SDS011;40363;52.270;10.546;2023-02-10T06:56:12;33.67;;;15.73;;
54452;SDS011;40363;52.270;10.546;2023-02-10T06:58:39;45.72;;;17.88;;
54452;SDS011;40363;52.270;10.546;2023-02-10T07:01:07;40.78;;;17.67;;
54452;SDS011;40363;52.270;10.546;2023-02-10T07:03:34;45.47;;;17.00;;
54452;SDS011;40363;52.270;10.546;2023-02-10T07:06:01;37.22;;;18.58;;
54452;SDS011;40363;52.270;10.546;2023-02-10T07:08:27;45.63;;;17.48;;
54452;SDS011;40363;52.270;10.546;2023-02-10T07:10:54;39.85;;;17.75;;
54452;SDS011;40363;52.270;10.546;2023-02-10T07:13:21;42.17;;;17.95;;
54452;SDS011;40363;52.270;10.546;2023-02-10T07:15:48;42.92;;;19.42;;
54452;SDS011;40363;52.270;10.546;2023-02-10T07:18:16;45.20;;;18.83;;
54452;SDS011;40363;52.270;10.546;2023-02-10T07:20:42;42.50;;;19.13;;
54452;SDS011;40363;52.270;10.546;2023-02-10T07:23:09;41.47;;;17.75;;
54452;SDS011;40363;52.270;10.546;2023-02-10T07:25:35;39.25;;;17.80;;
54452;SDS011;40363;52.270;10.546;2023-02-10T07:28:02;41.10;;;19.38;;
54452;SDS011;40363;52.270;10.546;2023-02-10T07:30:29;40.92;;;17.05;;
54452;SDS011;40363;52.270;10.546;2023-02-10T07:32:56;49.33;;;20.38;;
54452;SDS011;40363;52.270;10.546;2023-02-10T07:35:26;41.50;;;19.02;;
54452;SDS011;40363;52.270;10.546;2023-02-10T07:37:52;45.78;;;17.88;;
54452;SDS011;40363;52.270;10.546;2023-02-10T07:40:19;46.00;;;18.10;;
54452;SDS011;40363;52.270;10.546;2023-02-10T07:42:46;40.83;;;18.25;;
54452;SDS011;40363;52.270;10.546;2023-02-10T07:45:13;38.40;;;17.35;;
54452;SDS011;40363;52.270;10.546;2023-02-10T07:47:39;33.30;;;16.65;;
54452;SDS011;40363;52.270;10.546;2023-02-10T07:50:06;38.38;;;16.63;;
54452;SDS011;40363;52.270;10.546;2023-02-10T07:52:35;38.05;;;17.80;;
54452;SDS011;40363;52.270;10.546;2023-02-10T07:55:02;45.92;;;20.25;;
54452;SDS011;40363;52.270;10.546;2023-02-10T07:57:29;43.55;;;19.27;;
54452;SDS011;40363;52.270;10.546;2023-02-10T07:59:56;38.55;;;17.75;;
54452;SDS011;40363;52.270;10.546;2023-02-10T08:02:22;42.78;;;18.67;;
54452;SDS011;40363;52.270;10.546;2023-02-10T08:04:49;40.03;;;17.05;;
54452;SDS011;40363;52.270;10.546;2023-02-10T08:07:17;42.33;;;17.58;;
54452;SDS011;40363;52.270;10.546;2023-02-10T08:09:45;46.35;;;19.25;;
54452;SDS011;40363;52.270;10.546;2023-02-10T08:12:11;46.15;;;22.33;;
54452;SDS011;40363;52.270;10.546;2023-02-10T08:14:38;38.72;;;17.33;;
54452;SDS011;40363;52.270;10.546;2023-02-10T08:17:04;39.92;;;17.63;;
54452;SDS011;40363;52.270;10.546;2023-02-10T08:19:31;45.22;;;18.75;;
54452;SDS011;40363;52.270;10.546;2023-02-10T08:21:58;45.72;;;18.00;;
54452;SDS011;40363;52.270;10.546;2023-02-10T08:24:25;45.92;;;19.02;;
54452;SDS011;40363;52.270;10.546;2023-02-10T08:26:53;41.95;;;17.38;;
54452;SDS011;40363;52.270;10.546;2023-02-10T08:29:20;43.33;;;17.88;;
54452;SDS011;40363;52.270;10.546;2023-02-10T08:31:48;43.50;;;17.00;;
54452;SDS011;40363;52.270;10.546;2023-02-10T08:34:15;43.58;;;19.08;;
54452;SDS011;40363;52.270;10.546;2023-02-10T08:36:43;45.00;;;18.75;;
54452;SDS011;40363;52.270;10.546;2023-02-10T08:39:09;47.42;;;18.92;;
54452;SDS011;40363;52.270;10.546;2023-02-10T08:41:37;40.55;;;17.65;;
54452;SDS011;40363;52.270;10.546;2023-02-10T08:44:05;41.00;;;16.85;;
54452;SDS011;40363;52.270;10.546;2023-02-10T08:46:33;34.47;;;15.63;;
54452;SDS011;40363;52.270;10.546;2023-02-10T08:49:00;51.20;;;18.02;;
54452;SDS011;40363;52.270;10.546;2023-02-10T08:51:27;41.05;;;17.88;;
54452;SDS011;40363;52.270;10.546;2023-02-10T08:53:55;44.60;;;18.60;;
54452;SDS011;40363;52.270;10.546;2023-02-10T08:56:22;39.80;;;17.63;;
54452;SDS011;40363;52.270;10.546;2023-02-10T08:58:49;42.65;;;17.67;;
54452;SDS011;40363;52.270;10.546;2023-02-10T09:01:18;38.53;;;15.70;;
54452;SDS011;40363;52.270;10.546;2023-02-10T09:03:47;36.45;;;16.08;;
54452;SDS011;40363;52.270;10.546;2023-02-10T09:06:14;40.97;;;16.20;;
54452;SDS011;40363;52.270;10.546;2023-02-10T09:08:41;42.65;;;17.77;;
54452;SDS011;40363;52.270;10.546;2023-02-10T09:11:08;40.55;;;17.27;;
54452;SDS011;40363;52.270;10.546;2023-02-10T09:13:35;36.70;;;16.42;;
54452;SDS011;40363;52.270;10.546;2023-02-10T09:16:02;37.00;;;17.98;;
54452;SDS011;40363;52.270;10.546;2023-02-10T09:18:30;38.33;;;18.38;;
54452;SDS011;40363;52.270;10.546;2023-02-10T09:20:57;41.80;;;16.02;;
54452;SDS011;40363;52.270;10.546;2023-02-10T09:23:24;40.53;;;17.00;;
54452;SDS011;40363;52.270;10.546;2023-02-10T09:25:54;39.53;;;16.80;;
54452;SDS011;40363;52.270;10.546;2023-02-10T09:28:21;39.00;;;16.40;;
54452;SDS011;40363;52.270;10.546;2023-02-10T09:30:48;36.63;;;15.10;;
54452;SDS011;40363;52.270;10.546;2023-02-10T09:33:14;43.97;;;17.45;;
54452;SDS011;40363;52.270;10.546;2023-02-10T09:35:42;37.88;;;17.05;;
54452;SDS011;40363;52.270;10.546;2023-02-10T09:38:09;41.42;;;18.00;;
54452;SDS011;40363;52.270;10.546;2023-02-10T09:40:39;41.38;;;17.55;;
54452;SDS011;40363;52.270;10.546;2023-02-10T09:43:16;39.25;;;17.05;;
54452;SDS011;40363;52.270;10.546;2023-02-10T09:45:55;34.78;;;16.70;;
54452;SDS011;40363;52.270;10.546;2023-02-10T09:48:29;39.78;;;16.85;;
54452;SDS011;40363;52.270;10.546;2023-02-10T09:51:06;35.65;;;16.10;;
54452;SDS011;40363;52.270;10.546;2023-02-10T09:53:39;41.67;;;16.00;;
54452;SDS011;40363;52.270;10.546;2023-02-10T09:56:09;42.40;;;15.52;;
54452;SDS011;40363;52.270;10.546;2023-02-10T09:58:40;35.90;;;15.05;;
54452;SDS011;40363;52.270;10.546;2023-02-10T10:01:10;44.45;;;15.75;;
54452;SDS011;40363;52.270;10.546;2023-02-10T10:03:42;37.88;;;17.42;;
54452;SDS011;40363;52.270;10.546;2023-02-10T10:06:16;38.75;;;17.20;;
54452;SDS011;40363;52.270;10.546;2023-02-10T10:08:51;39.53;;;16.48;;
54452;SDS011;40363;52.270;10.546;2023-02-10T10:11:25;38.40;;;15.07;;
54452;SDS011;40363;52.270;10.546;2023-02-10T10:13:54;36.90;;;16.95;;
54452;SDS011;40363;52.270;10.546;2023-02-10T10:16:25;38.60;;;16.48;;
54452;SDS011;40363;52.270;10.546;2023-02-10T10:19:10;38.20;;;16.08;;
54452;SDS011;40363;52.270;10.546;2023-02-10T10:21:46;35.15;;;16.23;;
54452;SDS011;40363;52.270;10.546;2023-02-10T10:24:27;41.15;;;17.38;;
54452;SDS011;40363;52.270;10.546;2023-02-10T10:27:09;39.45;;;17.70;;
54452;SDS011;40363;52.270;10.546;2023-02-10T10:29:46;41.60;;;16.63;;
54452;SDS011;40363;52.270;10.546;2023-02-10T10:32:18;37.83;;;16.95;;
54452;SDS011;40363;52.270;10.546;2023-02-10T10:34:55;39.90;;;18.60;;
54452;SDS011;40363;52.270;10.546;2023-02-10T10:37:24;43.35;;;16.80;;
54452;SDS011;40363;52.270;10.546;2023-02-10T10:39:52;40.83;;;17.52;;
54452;SDS011;40363;52.270;10.546;2023-02-10T10:42:22;46.03;;;18.17;;
54452;SDS011;40363;52.270;10.546;2023-02-10T10:44:52;43.78;;;19.08;;
54452;SDS011;40363;52.270;10.546;2023-02-10T10:47:26;41.40;;;16.75;;
54452;SDS011;40363;52.270;10.546;2023-02-10T10:50:00;36.65;;;17.85;;
54452;SDS011;40363;52.270;10.546;2023-02-10T10:52:31;40.08;;;16.02;;
54452;SDS011;40363;52.270;10.546;2023-02-10T10:55:01;43.78;;;17.98;;
54452;SDS011;40363;52.270;10.546;2023-02-10T10:57:29;35.10;;;16.42;;
54452;SDS011;40363;52.270;10.546;2023-02-10T10:59:58;36.97;;;16.20;;
54452;SDS011;40363;52.270;10.546;2023-02-10T11:02:32;39.55;;;17.05;;
54452;SDS011;40363;52.270;10.546;2023-02-10T11:04:59;37.60;;;15.85;;
54452;SDS011;40363;52.270;10.546;2023-02-10T11:07:26;38.95;;;15.95;;
54452;SDS011;40363;52.270;10.546;2023-02-10T11:09:57;38.92;;;18.15;;
54452;SDS011;40363;52.270;10.546;2023-02-10T11:12:27;34.17;;;15.82;;
54452;SDS011;40363;52.270;10.546;2023-02-10T11:14:56;40.03;;;16.92;;
54452;SDS011;40363;52.270;10.546;2023-02-10T11:17:24;45.13;;;18.73;;
54452;SDS011;40363;52.270;10.546;2023-02-10T11:19:53;37.00;;;19.45;;
54452;SDS011;40363;52.270;10.546;2023-02-10T11:22:22;41.13;;;18.33;;
54452;SDS011;40363;52.270;10.546;2023-02-10T11:24:51;51.30;;;18.35;;
54452;SDS011;40363;52.270;10.546;2023-02-10T11:27:19;41.90;;;17.52;;
54452;SDS011;40363;52.270;10.546;2023-02-10T11:29:47;35.67;;;16.70;;
54452;SDS011;40363;52.270;10.546;2023-02-10T11:32:17;46.53;;;17.88;;
54452;SDS011;40363;52.270;10.546;2023-02-10T11:34:45;42.13;;;17.60;;
54452;SDS011;40363;52.270;10.546;2023-02-10T11:37:19;38.72;;;16.42;;
54452;SDS011;40363;52.270;10.546;2023-02-10T11:39:48;46.90;;;19.00;;
54452;SDS011;40363;52.270;10.546;2023-02-10T11:42:20;41.13;;;16.15;;
54452;SDS011;40363;52.270;10.546;2023-02-10T11:44:55;41.42;;;17.50;;
54452;SDS011;40363;52.270;10.546;2023-02-10T11:47:23;38.00;;;17.65;;
54452;SDS011;40363;52.270;10.546;2023-02-10T11:49:51;37.72;;;18.35;;
54452;SDS011;40363;52.270;10.546;2023-02-10T11:52:19;41.00;;;17.83;;
54452;SDS011;40363;52.270;10.546;2023-02-10T11:54:47;42.97;;;18.48;;
54452;SDS011;40363;52.270;10.546;2023-02-10T11:57:19;36.33;;;16.25;;
54452;SDS011;40363;52.270;10.546;2023-02-10T12:00:12;45.42;;;17.55;;
54452;SDS011;40363;52.270;10.546;2023-02-10T12:02:50;37.33;;;16.23;;
54452;SDS011;40363;52.270;10.546;2023-02-10T12:05:32;46.95;;;16.77;;
54452;SDS011;40363;52.270;10.546;2023-02-10T12:08:09;41.10;;;17.42;;
54452;SDS011;40363;52.270;10.546;2023-02-10T12:27:33;43.40;;;16.52;;
54452;SDS011;40363;52.270;10.546;2023-02-10T12:41:55;36.40;;;16.30;;
54452;SDS011;40363;52.270;10.546;2023-02-10T12:44:46;39.88;;;15.18;;
54452;SDS011;40363;52.270;10.546;2023-02-10T12:47:28;38.17;;;14.73;;
54452;SDS011;40363;52.270;10.546;2023-02-10T12:50:16;38.25;;;16.05;;
54452;SDS011;40363;52.270;10.546;2023-02-10T12:53:14;41.47;;;15.45;;
54452;SDS011;40363;52.270;10.546;2023-02-10T12:55:59;37.13;;;14.63;;
54452;SDS011;40363;52.270;10.546;2023-02-10T12:58:46;35.35;;;14.85;;
54452;SDS011;40363;52.270;10.546;2023-02-10T13:01:19;30.65;;;14.45;;
54452;SDS011;40363;52.270;10.546;2023-02-10T13:03:58;35.83;;;15.85;;
54452;SDS011;40363;52.270;10.546;2023-02-10T13:06:36;41.10;;;15.75;;
54452;SDS011;40363;52.270;10.546;2023-02-10T13:09:12;30.88;;;13.52;;
54452;SDS011;40363;52.270;10.546;2023-02-10T13:11:48;49.60;;;15.60;;
54452;SDS011;40363;52.270;10.546;2023-02-10T13:17:01;27.98;;;12.10;;
54452;SDS011;40363;52.270;10.546;2023-02-10T13:19:30;38.95;;;14.57;;
54452;SDS011;40363;52.270;10.546;2023-02-10T13:22:06;36.05;;;13.07;;
54452;SDS011;40363;52.270;10.546;2023-02-10T13:24:39;30.45;;;13.43;;
54452;SDS011;40363;52.270;10.546;2023-02-10T13:27:19;40.05;;;15.13;;
54452;SDS011;40363;52.270;10.546;2023-02-10T13:29:56;30.38;;;13.75;;
54452;SDS011;40363;52.270;10.546;2023-02-10T13:35:23;35.25;;;13.57;;
54452;SDS011;40363;52.270;10.546;2023-02-10T13:37:51;37.95;;;13.77;;
54452;SDS011;40363;52.270;10.546;2023-02-10T13:40:21;36.03;;;15.35;;
54452;SDS011;40363;52.270;10.546;2023-02-10T13:42:51;35.75;;;14.88;;
54452;SDS011;40363;52.270;10.546;2023-02-10T13:45:21;33.40;;;12.23;;
54452;SDS011;40363;52.270;10.546;2023-02-10T13:47:50;41.80;;;13.75;;
54452;SDS011;40363;52.270;10.546;2023-02-10T13:50:25;32.30;;;15.38;;
54452;SDS011;40363;52.270;10.546;2023-02-10T13:52:56;34.47;;;13.35;;
54452;SDS011;40363;52.270;10.546;2023-02-10T13:55:26;33.22;;;12.40;;
54452;SDS011;40363;52.270;10.546;2023-02-10T13:58:27;31.88;;;12.13;;
54452;SDS011;40363;52.270;10.546;2023-02-10T14:00:58;35.15;;;11.80;;
54452;SDS011;40363;52.270;10.546;2023-02-10T14:03:26;36.88;;;14.65;;
54452;SDS011;40363;52.270;10.546;2023-02-10T14:05:55;30.48;;;13.32;;
54452;SDS011;40363;52.270;10.546;2023-02-10T14:08:32;27.85;;;13.52;;
54452;SDS011;40363;52.270;10.546;2023-02-10T14:11:03;26.45;;;11.38;;
54452;SDS011;40363;52.270;10.546;2023-02-10T14:13:32;32.10;;;13.10;;
54452;SDS011;40363;52.270;10.546;2023-02-10T14:16:01;30.90;;;12.68;;
54452;SDS011;40363;52.270;10.546;2023-02-10T14:18:34;29.67;;;12.52;;
54452;SDS011;40363;52.270;10.546;2023-02-10T14:21:02;29.85;;;11.60;;
54452;SDS011;40363;52.270;10.546;2023-02-10T14:23:32;24.58;;;11.88;;
54452;SDS011;40363;52.270;10.546;2023-02-10T14:26:02;27.95;;;11.07;;
54452;SDS011;40363;52.270;10.546;2023-02-10T14:28:31;27.33;;;11.82;;
54452;SDS011;40363;52.270;10.546;2023-02-10T14:31:03;23.45;;;10.63;;
54452;SDS011;40363;52.270;10.546;2023-02-10T14:33:37;26.48;;;11.02;;
54452;SDS011;40363;52.270;10.546;2023-02-10T14:36:06;32.72;;;11.93;;
54452;SDS011;40363;52.270;10.546;2023-02-10T14:38:42;23.33;;;10.82;;
54452;SDS011;40363;52.270;10.546;2023-02-10T14:41:11;23.00;;;11.43;;
54452;SDS011;40363;52.270;10.546;2023-02-10T14:43:39;21.42;;;10.77;;
54452;SDS011;40363;52.270;10.546;2023-02-10T14:46:06;30.92;;;11.07;;
54452;SDS011;40363;52.270;10.546;2023-02-10T14:48:33;20.27;;;9.43;;
54452;SDS011;40363;52.270;10.546;2023-02-10T14:51:05;23.52;;;10.75;;
54452;SDS011;40363;52.270;10.546;2023-02-10T14:53:37;23.67;;;9.65;;
54452;SDS011;40363;52.270;10.546;2023-02-10T14:56:06;23.33;;;10.07;;
54452;SDS011;40363;52.270;10.546;2023-02-10T14:58:42;25.20;;;10.48;;
54452;SDS011;40363;52.270;10.546;2023-02-10T15:01:13;21.23;;;10.60;;
54452;SDS011;40363;52.270;10.546;2023-02-10T15:03:45;23.27;;;9.95;;
54452;SDS011;40363;52.270;10.546;2023-02-10T15:06:14;29.80;;;10.63;;